Time;durP1;ratioP1;P1;durP2;ratioP2;P2;SDS_P1;SDS_P2;PMS_P1;PMS_P2;Temp;Humidity;BMP_temperature;BMP_pressure;BME280_temperature;BME280_humidity;BME280_pressure;Samples;Min_cycle;Max_cycle;Signal;HPM_P1;HPM_P2
2022/02/01 00:00:21;;;;;;;3.85;2.08;;;;;;;5.30;95.78;98086.69;4155056;28;20199;-87
2022/02/01 00:02:34;;;;;;;3.75;2.00;;;;;;;5.32;96.30;98090.03;4220399;28;20193;-87
2022/02/01 00:04:47;;;;;;;4.63;2.30;;;;;;;5.35;95.77;98088.16;4205389;28;20376;-87
2022/02/01 00:06:59;;;;;;;3.58;2.25;;;;;;;5.36;95.79;98101.91;4220762;28;20261;-87
2022/02/01 00:09:10;;;;;;;2.75;2.10;;;;;;;5.36;95.79;98110.50;4238996;27;20691;-87
2022/02/01 00:11:28;;;;;;;2.65;2.10;;;;;;;5.39;95.65;98097.41;4205559;28;20667;-87
2022/02/01 00:13:46;;;;;;;4.00;2.45;;;;;;;5.43;95.36;98106.72;4206624;28;20307;-86
2022/02/01 00:16:14;;;;;;;3.63;2.47;;;;;;;5.45;95.21;98097.13;4203295;28;20209;-87
2022/02/01 00:18:33;;;;;;;5.00;2.85;;;;;;;5.43;94.92;98101.53;4204788;28;20241;-87
2022/02/01 00:35:21;;;;;;;4.97;3.33;;;;;;;5.57;94.87;98139.69;4202919;28;20193;-87
2022/02/01 00:37:30;;;;;;;6.28;2.92;;;;;;;5.59;94.02;98135.25;4205377;28;20292;-87
2022/02/01 00:39:43;;;;;;;5.32;3.30;;;;;;;5.56;93.83;98144.00;4205306;28;20205;-87
2022/02/01 00:41:53;;;;;;;6.65;3.05;;;;;;;5.57;94.29;98152.59;4189205;28;20202;-87
2022/02/01 00:43:56;;;;;;;6.80;3.13;;;;;;;5.55;94.16;98144.91;4205242;28;20673;-86
2022/02/01 00:46:01;;;;;;;5.50;3.00;;;;;;;5.51;94.45;98158.91;4186545;28;20252;-87
2022/02/01 00:48:05;;;;;;;4.40;3.10;;;;;;;5.54;94.43;98151.00;4205141;28;20209;-87
2022/02/01 00:50:12;;;;;;;4.28;3.08;;;;;;;5.50;93.89;98152.03;4187621;28;20670;-87
2022/02/01 00:52:17;;;;;;;3.47;2.30;;;;;;;5.50;94.31;98151.22;4187151;28;20935;-87
2022/02/01 00:54:21;;;;;;;4.43;3.00;;;;;;;5.51;94.01;98152.91;4205975;28;20228;-87
2022/02/01 00:56:25;;;;;;;4.75;2.60;;;;;;;5.58;93.77;98155.13;4205255;28;20577;-87
2022/02/01 00:58:31;;;;;;;3.28;2.50;;;;;;;5.55;94.37;98169.91;4187710;28;20207;-87
2022/02/01 01:00:36;;;;;;;9.00;3.10;;;;;;;5.50;93.58;98166.72;4203171;28;20197;-87
2022/02/01 01:05:30;;;;;;;3.15;2.10;;;;;;;5.44;94.29;98180.81;4193582;28;20225;-87
2022/02/01 01:07:34;;;;;;;3.25;1.83;;;;;;;5.42;94.26;98197.28;4191587;28;20203;-87
2022/02/01 01:09:40;;;;;;;2.85;1.60;;;;;;;5.44;93.33;98198.03;4189402;28;20215;-87
2022/02/01 01:11:44;;;;;;;2.17;1.65;;;;;;;5.36;93.51;98194.97;4191732;28;20747;-88
2022/02/01 01:16:36;;;;;;;2.50;1.30;;;;;;;5.28;93.44;98210.00;4125183;28;20833;-87
2022/02/01 01:19:04;;;;;;;2.70;2.03;;;;;;;5.20;93.21;98207.78;4172191;28;20207;-87
2022/02/01 01:44:48;;;;;;;2.75;1.70;;;;;;;4.86;96.23;98224.00;4188992;28;20778;-88
2022/02/01 01:53:54;;;;;;;3.85;1.58;;;;;;;4.93;95.82;98230.56;4191322;28;20222;-87
2022/02/01 01:55:58;;;;;;;3.33;1.60;;;;;;;4.96;95.85;98231.28;4189958;28;20628;-87
2022/02/01 01:58:01;;;;;;;6.60;2.30;;;;;;;5.01;96.20;98234.50;4176348;28;20303;-87
2022/02/01 02:00:08;;;;;;;2.67;1.63;;;;;;;5.00;96.35;98239.75;4171621;28;20257;-87
2022/02/01 02:02:16;;;;;;;4.63;2.20;;;;;;;5.03;96.15;98235.25;4207167;28;20240;-86
2022/02/01 02:04:19;;;;;;;3.67;1.90;;;;;;;4.96;95.16;98251.09;4170355;28;20266;-87
2022/02/01 02:06:23;;;;;;;4.47;2.10;;;;;;;4.97;95.26;98257.97;4204700;28;20213;-87
2022/02/01 02:08:26;;;;;;;4.68;2.15;;;;;;;4.96;96.63;98256.28;4192205;28;20206;-87
2022/02/01 02:10:34;;;;;;;2.58;1.85;;;;;;;5.00;96.24;98263.00;4173197;28;20666;-87
2022/02/01 02:12:53;;;;;;;2.80;1.98;;;;;;;5.01;95.80;98255.19;4190072;28;20583;-87
2022/02/01 02:14:55;;;;;;;2.80;1.70;;;;;;;5.01;95.15;98256.94;4189953;28;20214;-87
2022/02/01 02:17:00;;;;;;;3.15;1.52;;;;;;;4.98;95.44;98262.22;4175895;28;20589;-87
2022/02/01 02:19:06;;;;;;;6.72;2.28;;;;;;;4.99;95.94;98261.31;4174162;28;20297;-87
2022/02/01 02:21:11;;;;;;;4.72;1.95;;;;;;;4.91;96.32;98258.22;4190377;28;20218;-87
2022/02/01 02:23:19;;;;;;;4.38;2.30;;;;;;;4.90;95.46;98251.38;4176728;28;20201;-86
2022/02/01 02:25:23;;;;;;;3.88;2.17;;;;;;;4.92;96.18;98267.66;4175157;28;20595;-86
2022/02/01 02:27:26;;;;;;;4.75;1.98;;;;;;;4.92;95.48;98276.25;4175577;28;20663;-87
2022/02/01 02:29:33;;;;;;;4.00;3.20;;;;;;;4.90;96.53;98277.19;4189097;28;20298;-87
2022/02/01 02:31:38;;;;;;;7.80;2.20;;;;;;;4.93;96.27;98283.09;4187740;28;20198;-86
2022/02/01 02:33:44;;;;;;;3.28;1.80;;;;;;;4.91;95.82;98282.31;4187244;28;20252;-87
2022/02/01 02:35:55;;;;;;;3.05;2.00;;;;;;;4.86;96.05;98279.09;4168730;28;20218;-87
2022/02/01 02:38:03;;;;;;;4.75;2.33;;;;;;;4.91;95.89;98304.72;4190587;28;20224;-87
2022/02/01 02:40:20;;;;;;;5.95;2.50;;;;;;;4.82;95.77;98293.03;4190322;28;20216;-87
2022/02/01 02:42:33;;;;;;;2.88;1.90;;;;;;;4.80;95.68;98297.44;4207789;28;20669;-87
2022/02/01 02:47:00;;;;;;;7.50;3.10;;;;;;;4.77;96.77;98288.97;4175201;28;20214;-87
2022/02/01 02:49:05;;;;;;;13.95;3.60;;;;;;;4.74;96.10;98289.13;4189604;28;20250;-87
2022/02/01 02:51:08;;;;;;;7.72;3.40;;;;;;;4.75;95.09;98288.19;4189760;28;20239;-87
2022/02/01 02:53:13;;;;;;;7.43;3.35;;;;;;;4.72;95.64;98308.97;4185044;28;20241;-87
2022/02/01 02:55:16;;;;;;;9.38;3.58;;;;;;;4.77;95.19;98304.47;4172902;28;20233;-87
2022/02/01 02:57:19;;;;;;;11.05;3.78;;;;;;;4.70;95.03;98316.78;4175783;28;20211;-88
2022/02/01 02:59:23;;;;;;;7.90;3.10;;;;;;;4.65;96.13;98315.31;4207041;28;20201;-87
2022/02/01 03:01:26;;;;;;;14.55;3.47;;;;;;;4.58;96.61;98306.13;4189338;28;20656;-87
2022/02/01 03:03:30;;;;;;;10.25;3.90;;;;;;;4.64;96.59;98310.22;4179009;28;20218;-87
2022/02/01 03:05:36;;;;;;;10.23;3.42;;;;;;;4.63;97.14;98314.56;4188752;28;20211;-87
2022/02/01 03:07:39;;;;;;;14.23;4.15;;;;;;;4.63;96.70;98303.38;4177807;28;20720;-87
2022/02/01 03:09:44;;;;;;;12.88;4.25;;;;;;;4.68;96.19;98307.44;4189695;28;20264;-87
2022/02/01 03:11:48;;;;;;;11.93;4.40;;;;;;;4.69;96.89;98315.13;4190777;28;20777;-87
2022/02/01 03:13:55;;;;;;;17.50;4.55;;;;;;;4.72;96.07;98324.47;4191494;28;20753;-87
2022/02/01 03:16:04;;;;;;;13.60;3.83;;;;;;;4.74;96.91;98333.03;4187611;28;20217;-87
2022/02/01 03:20:41;;;;;;;9.98;3.90;;;;;;;4.77;96.08;98320.81;4122724;28;20219;-87
2022/02/01 03:22:44;;;;;;;17.33;4.18;;;;;;;4.80;95.13;98319.84;4158749;28;20702;-88
2022/02/01 03:24:49;;;;;;;10.60;3.83;;;;;;;4.80;94.87;98312.09;4188217;28;20229;-86
2022/02/01 03:26:52;;;;;;;10.82;4.20;;;;;;;4.77;96.03;98332.91;4190549;28;20275;-87
2022/02/01 03:28:55;;;;;;;17.20;4.50;;;;;;;4.83;94.96;98330.88;4186850;28;20662;-86
2022/02/01 03:30:58;;;;;;;19.35;4.38;;;;;;;4.79;96.12;98336.25;4170479;28;20211;-87
2022/02/01 03:33:01;;;;;;;11.80;4.43;;;;;;;4.78;94.74;98329.38;4187506;28;20202;-86
2022/02/01 03:35:05;;;;;;;13.88;4.15;;;;;;;4.74;95.14;98328.69;4172013;28;20238;-86
2022/02/01 03:37:08;;;;;;;13.70;4.45;;;;;;;4.73;95.95;98328.75;4207822;28;20258;-87
2022/02/01 03:39:12;;;;;;;15.32;4.50;;;;;;;4.78;95.56;98331.97;4175142;28;20210;-87
2022/02/01 03:41:16;;;;;;;17.98;4.60;;;;;;;4.75;95.74;98337.25;4190346;28;20202;-86
2022/02/01 03:43:20;;;;;;;21.92;5.57;;;;;;;4.74;95.35;98327.84;4193618;28;20202;-86
2022/02/01 03:45:25;;;;;;;15.02;5.05;;;;;;;4.71;94.70;98336.56;4175409;28;20655;-86
2022/02/01 03:47:31;;;;;;;19.65;5.13;;;;;;;4.73;94.28;98331.31;4174529;28;20206;-86
2022/02/01 03:49:37;;;;;;;17.92;4.05;;;;;;;4.77;94.56;98332.91;4206886;28;20288;-87
2022/02/01 03:51:40;;;;;;;17.52;4.18;;;;;;;4.72;93.55;98345.13;4191548;28;20237;-86
2022/02/01 03:53:43;;;;;;;20.80;4.68;;;;;;;4.70;93.88;98349.53;4189130;28;20237;-88
2022/02/01 03:55:46;;;;;;;15.25;4.35;;;;;;;4.74;93.80;98341.59;4189835;28;20206;-86
2022/02/01 03:57:50;;;;;;;14.15;4.40;;;;;;;4.72;93.53;98339.97;4203903;28;20272;-87
2022/02/01 03:59:56;;;;;;;17.67;4.40;;;;;;;4.74;93.43;98344.19;4189445;28;20697;-87
2022/02/01 04:02:01;;;;;;;18.65;4.35;;;;;;;4.70;92.88;98355.53;4205628;28;20685;-87
2022/02/01 04:04:05;;;;;;;17.25;4.50;;;;;;;4.76;92.77;98352.69;4173678;28;20282;-87
2022/02/01 04:06:10;;;;;;;15.38;4.60;;;;;;;4.72;92.39;98358.91;4174481;28;20678;-87
2022/02/01 04:08:18;;;;;;;16.48;4.53;;;;;;;4.73;93.57;98362.31;4191499;28;20202;-86
2022/02/01 04:10:21;;;;;;;20.13;5.05;;;;;;;4.74;92.72;98364.00;4173216;28;20289;-86
2022/02/01 04:12:25;;;;;;;16.15;4.30;;;;;;;4.76;93.06;98375.94;4171652;28;20253;-86
2022/02/01 04:14:32;;;;;;;16.13;4.88;;;;;;;4.75;92.32;98389.78;4206494;28;20221;-86
2022/02/01 04:16:36;;;;;;;14.20;4.13;;;;;;;4.73;90.46;98398.47;4191913;28;20753;-87
2022/02/01 04:18:39;;;;;;;15.80;4.30;;;;;;;4.68;91.08;98396.09;4191495;28;20702;-88
2022/02/01 04:20:43;;;;;;;14.88;4.90;;;;;;;4.69;91.23;98387.44;4206227;28;20237;-87
2022/02/01 04:22:46;;;;;;;19.45;4.60;;;;;;;4.72;90.93;98391.63;4191244;28;20198;-86
2022/02/01 04:24:49;;;;;;;14.10;3.90;;;;;;;4.69;91.51;98397.78;4191632;28;20569;-86
2022/02/01 04:26:55;;;;;;;15.85;4.57;;;;;;;4.67;90.32;98401.31;4173484;28;20683;-87
2022/02/01 04:28:58;;;;;;;18.98;4.13;;;;;;;4.62;88.85;98413.56;4190925;28;20206;-87
2022/02/01 04:31:04;;;;;;;21.48;4.55;;;;;;;4.59;88.97;98421.44;4189146;28;20213;-88
2022/02/01 04:33:08;;;;;;;11.15;3.35;;;;;;;4.60;89.17;98417.97;4166947;28;20261;-86
2022/02/01 04:35:12;;;;;;;17.92;3.85;;;;;;;4.56;89.39;98415.56;4170196;28;20276;-87
2022/02/01 04:37:15;;;;;;;11.90;2.60;;;;;;;4.57;89.41;98401.75;4186383;28;20662;-87
2022/02/01 04:39:19;;;;;;;14.18;3.28;;;;;;;4.52;87.83;98417.41;4187723;28;22210;-86
2022/02/01 04:41:22;;;;;;;13.18;3.38;;;;;;;4.53;86.90;98413.94;4177808;28;20369;-87
2022/02/01 04:43:25;;;;;;;12.25;3.45;;;;;;;4.61;87.15;98418.81;4192239;28;20216;-87
2022/02/01 04:45:31;;;;;;;16.27;4.28;;;;;;;4.41;86.36;98422.16;4207997;28;20227;-86
2022/02/01 04:47:36;;;;;;;11.43;3.10;;;;;;;4.37;86.63;98420.59;4192561;28;20845;-86
2022/02/01 04:49:39;;;;;;;13.10;2.83;;;;;;;4.37;86.65;98425.75;4177935;28;20226;-87
2022/02/01 04:51:42;;;;;;;13.07;2.53;;;;;;;4.37;86.34;98425.75;4191157;28;20348;-86
2022/02/01 04:53:46;;;;;;;19.65;3.75;;;;;;;4.29;86.04;98420.06;4180684;28;20207;-87
2022/02/01 04:55:54;;;;;;;17.05;3.53;;;;;;;4.38;85.70;98424.03;4175363;28;20274;-87
2022/02/01 04:57:57;;;;;;;13.05;5.07;;;;;;;4.34;85.12;98422.44;4192607;28;20700;-86
2022/02/01 05:00:00;;;;;;;12.13;3.20;;;;;;;4.33;84.84;98429.38;4193579;28;20206;-87
2022/02/01 05:02:05;;;;;;;12.05;3.53;;;;;;;4.34;85.25;98433.59;4193123;28;20666;-87
2022/02/01 05:04:17;;;;;;;11.30;3.42;;;;;;;4.29;85.14;98432.13;4174756;28;20682;-86
2022/02/01 05:06:22;;;;;;;13.82;3.40;;;;;;;4.34;84.53;98446.50;4193758;28;20198;-86
2022/02/01 05:08:26;;;;;;;10.52;3.15;;;;;;;4.39;84.89;98443.75;4173282;28;20628;-86
2022/02/01 05:10:30;;;;;;;10.63;3.38;;;;;;;4.34;85.26;98459.41;4207587;28;20626;-86
2022/02/01 05:12:36;;;;;;;13.32;3.80;;;;;;;4.37;84.44;98459.31;4175806;28;20249;-86
2022/02/01 05:14:39;;;;;;;16.33;3.50;;;;;;;4.40;84.51;98476.44;4192723;28;20325;-87
2022/02/01 05:16:55;;;;;;;12.20;3.40;;;;;;;4.45;84.70;98477.94;4191440;28;20210;-86
2022/02/01 05:19:05;;;;;;;16.88;4.10;;;;;;;4.49;84.39;98470.91;4190662;28;20213;-86
2022/02/01 05:21:13;;;;;;;12.93;3.20;;;;;;;4.50;83.97;98468.28;4175437;28;20293;-87
2022/02/01 05:23:20;;;;;;;14.50;3.80;;;;;;;4.51;83.97;98464.81;4190303;28;20225;-86
2022/02/01 05:25:29;;;;;;;14.23;3.28;;;;;;;4.48;83.60;98475.25;4189217;28;20268;-86
2022/02/01 05:27:33;;;;;;;17.70;3.92;;;;;;;4.48;83.54;98484.72;4193315;28;20685;-86
2022/02/01 05:29:36;;;;;;;15.63;3.25;;;;;;;4.48;84.10;98495.03;4191663;28;20623;-86
2022/02/01 05:31:39;;;;;;;9.32;2.90;;;;;;;4.55;83.26;98509.41;4191559;28;20225;-87
2022/02/01 05:33:42;;;;;;;11.80;3.10;;;;;;;4.59;83.63;98514.41;4176739;28;20626;-87
2022/02/01 05:35:46;;;;;;;9.02;3.42;;;;;;;4.59;82.84;98501.50;4191844;28;20685;-86
2022/02/01 05:37:53;;;;;;;12.60;2.95;;;;;;;4.57;83.40;98500.72;4173943;28;20210;-86
2022/02/01 05:39:59;;;;;;;16.15;3.78;;;;;;;4.59;84.23;98501.50;4175062;28;20221;-86
2022/02/01 05:42:05;;;;;;;18.73;3.63;;;;;;;4.62;84.24;98503.13;4191671;28;20207;-86
2022/02/01 05:44:11;;;;;;;15.77;2.72;;;;;;;4.67;83.46;98499.44;4173686;28;20206;-86
2022/02/01 05:46:17;;;;;;;11.95;2.88;;;;;;;4.76;83.02;98502.50;4207360;28;20202;-87
2022/02/01 05:48:24;;;;;;;13.18;3.40;;;;;;;4.73;83.38;98499.22;4173760;28;20236;-87
2022/02/01 05:50:28;;;;;;;18.75;4.15;;;;;;;4.77;83.50;98486.13;4190130;28;20202;-87
2022/02/01 05:52:34;;;;;;;19.20;3.63;;;;;;;4.82;83.86;98481.59;4190784;28;20784;-86
2022/02/01 05:54:38;;;;;;;16.50;3.08;;;;;;;4.81;83.87;98469.59;4208495;28;20221;-86
2022/02/01 05:56:41;;;;;;;19.15;3.75;;;;;;;4.82;84.07;98473.03;4192379;28;20199;-86
2022/02/01 05:58:44;;;;;;;7.38;2.70;;;;;;;4.85;84.44;98483.22;4174851;28;20290;-86
2022/02/01 06:00:48;;;;;;;19.20;3.45;;;;;;;4.84;83.50;98481.53;4176149;28;20688;-86
2022/02/01 06:02:51;;;;;;;11.13;2.90;;;;;;;4.90;83.03;98482.16;4191411;28;20202;-86
2022/02/01 06:04:54;;;;;;;12.85;2.65;;;;;;;4.84;82.76;98481.53;4173596;28;20659;-85
2022/02/01 06:06:57;;;;;;;11.73;3.33;;;;;;;4.85;81.77;98488.41;4175713;28;20198;-86
2022/02/01 06:09:00;;;;;;;14.57;2.95;;;;;;;4.84;81.38;98499.63;4173106;28;20210;-88
2022/02/01 06:11:05;;;;;;;11.18;2.55;;;;;;;4.84;82.44;98504.78;4208630;28;20215;-86
2022/02/01 06:13:08;;;;;;;14.52;3.70;;;;;;;4.83;81.85;98498.78;4175840;28;20218;-87
2022/02/01 06:15:12;;;;;;;10.23;3.50;;;;;;;4.85;82.11;98498.75;4207250;28;20205;-86
2022/02/01 06:17:17;;;;;;;9.50;2.85;;;;;;;4.86;82.47;98493.50;4191296;28;20321;-86
2022/02/01 06:19:20;;;;;;;14.85;2.80;;;;;;;4.90;81.38;98486.47;4175067;28;20250;-86
2022/02/01 06:21:25;;;;;;;12.63;2.33;;;;;;;4.91;81.07;98477.81;4178997;28;20241;-86
2022/02/01 06:23:29;;;;;;;13.45;2.97;;;;;;;4.88;81.83;98485.69;4190960;28;20228;-85
2022/02/01 06:25:49;;;;;;;11.73;3.25;;;;;;;4.88;81.62;98507.19;4191511;28;20205;-87
2022/02/01 06:27:53;;;;;;;12.07;2.47;;;;;;;4.91;82.53;98517.41;4177730;28;20651;-87
2022/02/01 06:29:57;;;;;;;11.13;2.50;;;;;;;4.94;80.96;98526.78;4176157;28;20206;-86
2022/02/01 06:32:01;;;;;;;13.05;2.42;;;;;;;4.98;81.27;98526.63;4191482;28;20214;-88
2022/02/01 06:34:04;;;;;;;13.85;2.97;;;;;;;5.00;81.29;98521.38;4174686;28;20222;-88
2022/02/01 06:36:07;;;;;;;12.50;2.95;;;;;;;5.03;82.39;98510.94;4189269;28;20245;-87
2022/02/01 06:38:11;;;;;;;9.25;2.50;;;;;;;5.03;81.98;98523.84;4174443;28;20221;-86
2022/02/01 06:40:14;;;;;;;10.48;2.55;;;;;;;5.06;81.92;98526.31;4190021;28;20257;-86
2022/02/01 06:42:17;;;;;;;10.68;2.40;;;;;;;5.08;81.84;98525.31;4191394;28;20644;-86
2022/02/01 06:44:22;;;;;;;14.80;2.92;;;;;;;5.14;81.77;98541.47;4191183;28;20744;-86
2022/02/01 06:46:26;;;;;;;10.27;2.55;;;;;;;5.14;82.17;98544.03;4173359;28;20191;-87
2022/02/01 06:48:30;;;;;;;13.07;2.83;;;;;;;5.15;81.51;98548.28;4189045;28;20218;-86
2022/02/01 06:50:34;;;;;;;17.65;4.75;;;;;;;5.18;81.36;98547.34;4191961;28;20217;-86
2022/02/01 06:52:37;;;;;;;17.75;2.55;;;;;;;5.19;81.18;98538.69;4189261;28;20211;-87
2022/02/01 06:54:41;;;;;;;12.82;2.70;;;;;;;5.19;81.86;98552.44;4191503;28;20214;-86
2022/02/01 06:56:44;;;;;;;9.82;2.80;;;;;;;5.21;82.05;98555.81;4178976;28;20256;-86
2022/02/01 06:58:47;;;;;;;7.43;2.10;;;;;;;5.19;81.61;98560.19;4174255;28;20206;-86
2022/02/01 07:00:54;;;;;;;7.10;2.05;;;;;;;5.18;80.79;98566.25;4184680;28;20657;-86
2022/02/01 07:02:57;;;;;;;11.18;2.78;;;;;;;5.18;80.67;98573.19;4188389;28;20347;-85
2022/02/01 07:05:01;;;;;;;5.38;1.95;;;;;;;5.16;80.66;98586.16;4193017;28;20221;-88
2022/02/01 07:07:05;;;;;;;13.68;2.90;;;;;;;5.15;80.96;98589.66;4171753;28;20562;-86
2022/02/01 07:09:08;;;;;;;19.30;3.30;;;;;;;5.14;81.13;98597.47;4177133;28;20211;-85
2022/02/01 07:11:12;;;;;;;14.25;2.70;;;;;;;5.20;81.19;98600.66;4189652;28;20203;-85
2022/02/01 07:13:16;;;;;;;10.18;2.85;;;;;;;5.19;80.90;98606.72;4186294;28;20226;-85
2022/02/01 07:15:19;;;;;;;17.02;5.05;;;;;;;5.19;80.51;98606.72;4174075;28;20295;-85
2022/02/01 07:17:24;;;;;;;13.40;2.35;;;;;;;5.23;81.51;98608.31;4187713;28;20284;-89
2022/02/01 07:19:27;;;;;;;10.00;1.85;;;;;;;5.23;80.86;98625.53;4168672;28;20221;-85
2022/02/01 07:21:30;;;;;;;9.02;2.60;;;;;;;5.24;81.10;98628.06;4202349;28;20205;-84
2022/02/01 07:23:34;;;;;;;12.55;2.75;;;;;;;5.25;81.07;98608.25;4177130;28;20207;-84
2022/02/01 07:25:45;;;;;;;9.15;2.00;;;;;;;5.29;81.38;98604.63;4209295;28;20264;-84
2022/02/01 07:27:49;;;;;;;6.82;2.63;;;;;;;5.31;80.77;98603.66;4192157;28;20265;-84
2022/02/01 07:29:52;;;;;;;9.25;2.33;;;;;;;5.27;80.96;98602.09;4176495;28;20234;-85
2022/02/01 07:31:55;;;;;;;10.43;2.20;;;;;;;5.28;80.42;98600.38;4192593;28;20292;-84
2022/02/01 07:34:00;;;;;;;13.38;2.25;;;;;;;5.24;80.21;98599.63;4193080;28;20202;-85
2022/02/01 07:36:04;;;;;;;7.70;2.10;;;;;;;5.22;80.81;98601.44;4174381;28;20210;-86
2022/02/01 07:38:08;;;;;;;12.10;2.45;;;;;;;5.21;81.45;98594.56;4187031;28;20691;-85
2022/02/01 07:40:12;;;;;;;11.15;3.00;;;;;;;5.18;81.00;98589.53;4175244;28;20206;-87
2022/02/01 07:42:15;;;;;;;10.25;2.88;;;;;;;5.17;81.70;98592.16;4205304;28;20213;-86
2022/02/01 07:44:19;;;;;;;12.02;2.95;;;;;;;5.17;81.81;98587.88;4210169;28;20246;-86
2022/02/01 07:46:22;;;;;;;10.43;2.63;;;;;;;5.20;81.44;98589.47;4171013;28;20596;-85
2022/02/01 07:48:25;;;;;;;9.18;3.10;;;;;;;5.23;81.59;98581.59;4193892;28;20208;-86
2022/02/01 07:50:33;;;;;;;16.25;3.30;;;;;;;5.21;81.32;98584.22;4167168;28;20203;-86
2022/02/01 07:52:39;;;;;;;8.63;2.58;;;;;;;5.30;80.63;98589.03;4182340;28;20206;-87
2022/02/01 07:54:42;;;;;;;10.43;2.92;;;;;;;5.25;80.82;98593.56;4190905;28;20210;-87
2022/02/01 07:56:45;;;;;;;8.23;2.72;;;;;;;5.19;80.94;98583.47;4191177;28;20570;-85
2022/02/01 07:58:48;;;;;;;9.20;2.42;;;;;;;5.17;80.15;98600.78;4186637;28;20453;-87
2022/02/01 08:00:53;;;;;;;9.25;2.80;;;;;;;5.21;80.94;98606.66;4190613;28;20262;-87
2022/02/01 08:02:58;;;;;;;5.45;2.00;;;;;;;5.22;80.34;98605.78;4197341;28;20258;-86
2022/02/01 08:05:02;;;;;;;10.90;2.55;;;;;;;5.13;80.50;98603.56;4191200;28;20230;-86
2022/02/01 08:07:07;;;;;;;9.05;1.90;;;;;;;5.22;80.74;98605.78;4191479;28;20217;-86
2022/02/01 08:09:19;;;;;;;9.82;2.30;;;;;;;5.28;80.65;98611.53;4187463;28;20207;-86
2022/02/01 08:11:23;;;;;;;12.18;2.55;;;;;;;5.25;80.51;98626.34;4172947;28;20209;-86
2022/02/01 08:18:19;;;;;;;6.70;2.50;;;;;;;5.22;79.68;98609.19;4177206;28;22110;-88
2022/02/01 08:20:25;;;;;;;8.75;2.25;;;;;;;5.19;80.44;98593.81;4206136;28;20678;-88
2022/02/01 08:22:37;;;;;;;10.73;2.15;;;;;;;5.21;79.68;98606.66;4205487;28;20306;-88
2022/02/01 08:24:40;;;;;;;12.52;2.90;;;;;;;5.22;80.21;98622.13;4208711;28;20205;-88
2022/02/01 08:26:46;;;;;;;8.80;2.85;;;;;;;5.22;80.33;98621.28;4192064;28;20284;-89
2022/02/01 08:28:49;;;;;;;8.73;2.63;;;;;;;5.30;80.58;98627.00;4208757;28;20603;-88
2022/02/01 08:31:17;;;;;;;9.82;2.50;;;;;;;5.36;80.88;98625.00;4207802;28;20198;-88
2022/02/01 08:33:20;;;;;;;11.75;2.40;;;;;;;5.30;80.20;98627.00;4176991;28;20217;-87
2022/02/01 08:35:23;;;;;;;7.68;1.95;;;;;;;5.28;80.40;98624.47;4177408;28;20293;-87
2022/02/01 08:37:49;;;;;;;8.18;2.20;;;;;;;5.28;80.76;98621.88;4192089;28;20767;-87
2022/02/01 08:40:16;;;;;;;6.78;2.53;;;;;;;5.30;80.62;98635.59;4179545;28;20207;-87
2022/02/01 08:42:20;;;;;;;8.32;2.63;;;;;;;5.37;80.77;98637.03;4191091;28;20210;-87
2022/02/01 08:44:27;;;;;;;7.70;3.05;;;;;;;5.36;80.77;98639.69;4190881;28;20207;-88
2022/02/01 08:46:30;;;;;;;7.70;2.45;;;;;;;5.39;81.07;98635.22;4207904;28;20335;-87
2022/02/01 08:48:34;;;;;;;6.32;2.53;;;;;;;5.38;80.62;98627.53;4173875;28;20203;-86
2022/02/01 08:50:37;;;;;;;8.82;2.50;;;;;;;5.41;81.06;98617.06;4170458;28;20295;-88
2022/02/01 08:52:41;;;;;;;6.75;2.70;;;;;;;5.37;80.52;98613.78;4174411;28;20238;-89
2022/02/01 08:54:50;;;;;;;6.85;2.92;;;;;;;5.36;80.63;98619.84;4177513;28;20268;-88
2022/02/01 08:59:16;;;;;;;11.10;2.92;;;;;;;5.34;81.73;98632.00;4175476;28;20206;-88
2022/02/01 09:01:19;;;;;;;10.82;2.60;;;;;;;5.35;81.55;98613.00;4194425;28;20242;-88
2022/02/01 09:03:25;;;;;;;9.23;2.13;;;;;;;5.37;80.43;98623.28;4193121;28;20275;-88
2022/02/01 09:05:29;;;;;;;10.75;3.08;;;;;;;5.39;80.41;98632.63;4207380;28;20209;-88
2022/02/01 09:07:32;;;;;;;8.40;2.65;;;;;;;5.38;80.70;98633.56;4191525;28;20285;-87
2022/02/01 09:09:36;;;;;;;10.23;3.00;;;;;;;5.36;81.56;98625.00;4194159;28;20198;-88
2022/02/01 09:11:41;;;;;;;9.07;2.70;;;;;;;5.38;80.97;98622.34;4177057;28;20206;-88
2022/02/01 09:13:46;;;;;;;12.20;2.90;;;;;;;5.40;81.25;98616.22;4192750;28;20226;-88
2022/02/01 09:15:49;;;;;;;13.55;2.85;;;;;;;5.42;81.17;98611.84;4208940;28;20214;-88
2022/02/01 09:17:54;;;;;;;7.82;2.60;;;;;;;5.46;81.56;98609.97;4207657;28;20229;-88
2022/02/01 09:20:03;;;;;;;8.88;2.53;;;;;;;5.58;81.53;98615.50;4207256;28;20239;-87
2022/02/01 09:22:07;;;;;;;6.30;2.63;;;;;;;5.67;81.22;98622.91;4176910;28;20202;-88
2022/02/01 09:24:10;;;;;;;15.63;2.95;;;;;;;5.72;80.81;98619.19;4190051;28;20215;-88
2022/02/01 09:26:13;;;;;;;10.60;4.32;;;;;;;5.71;80.63;98614.94;4192388;28;20567;-88
2022/02/01 09:28:17;;;;;;;7.00;2.55;;;;;;;5.72;80.48;98608.84;4188937;28;20220;-87
2022/02/01 09:30:22;;;;;;;6.35;2.65;;;;;;;5.70;81.87;98608.06;4176188;28;20202;-88
2022/02/01 09:32:27;;;;;;;7.50;3.38;;;;;;;5.67;81.22;98608.19;4193414;28;20214;-88
2022/02/01 09:34:42;;;;;;;8.65;3.05;;;;;;;5.62;81.12;98598.94;4190394;28;20205;-87
2022/02/01 09:36:45;;;;;;;9.05;2.65;;;;;;;5.61;81.09;98582.59;4207540;28;20197;-87
2022/02/01 09:38:49;;;;;;;12.35;3.40;;;;;;;5.61;81.05;98574.81;4203112;28;20792;-87
2022/02/01 09:40:52;;;;;;;8.20;2.90;;;;;;;5.62;81.00;98576.53;4210149;28;20201;-87
2022/02/01 09:42:56;;;;;;;5.75;2.83;;;;;;;5.63;81.07;98574.75;4176455;28;20215;-87
2022/02/01 09:45:01;;;;;;;10.38;3.05;;;;;;;5.67;80.59;98574.56;4174941;28;20849;-87
2022/02/01 09:47:07;;;;;;;11.57;3.20;;;;;;;5.69;80.64;98572.75;4209072;28;20287;-88
2022/02/01 09:49:16;;;;;;;5.85;2.72;;;;;;;5.75;80.25;98577.72;4175747;28;20658;-87
2022/02/01 09:51:19;;;;;;;7.07;2.67;;;;;;;5.78;81.00;98589.69;4207009;28;20210;-88
2022/02/01 09:53:43;;;;;;;6.70;3.20;;;;;;;5.87;81.03;98582.38;4171953;28;20222;-87
2022/02/01 09:55:47;;;;;;;6.18;2.95;;;;;;;5.93;80.36;98579.53;4207408;28;20682;-87
2022/02/01 09:57:54;;;;;;;10.10;2.80;;;;;;;6.01;80.94;98581.78;4207349;28;20312;-87
2022/02/01 09:59:59;;;;;;;11.38;3.40;;;;;;;6.12;80.72;98583.84;4206150;28;20288;-88
2022/02/01 10:02:08;;;;;;;9.10;2.38;;;;;;;6.21;79.30;98578.28;4195887;28;20220;-87
2022/02/01 10:04:11;;;;;;;11.48;2.80;;;;;;;6.23;79.58;98581.66;4174601;28;20202;-87
2022/02/01 10:06:18;;;;;;;5.43;2.40;;;;;;;6.16;78.91;98580.25;4190419;28;20206;-85
2022/02/01 10:08:26;;;;;;;7.13;2.40;;;;;;;6.21;78.72;98588.66;4192123;28;20222;-87
2022/02/01 10:10:31;;;;;;;6.85;2.38;;;;;;;6.23;79.22;98586.81;4173736;28;20211;-87
2022/02/01 10:12:36;;;;;;;7.72;3.13;;;;;;;6.30;79.26;98585.66;4207874;28;20205;-87
2022/02/01 10:14:42;;;;;;;6.68;2.90;;;;;;;6.37;78.96;98581.88;4192262;28;20198;-87
2022/02/01 10:16:49;;;;;;;7.38;2.90;;;;;;;6.43;79.08;98576.44;4178199;28;20217;-87
2022/02/01 10:18:54;;;;;;;5.75;1.92;;;;;;;6.46;78.41;98560.75;4207596;28;20227;-88
2022/02/01 10:21:05;;;;;;;10.93;2.92;;;;;;;6.55;78.68;98564.69;4191417;28;20206;-87
2022/02/01 10:23:21;;;;;;;8.32;3.35;;;;;;;6.60;77.75;98567.00;4190478;28;20266;-87
2022/02/01 10:25:29;;;;;;;5.57;2.00;;;;;;;6.67;77.13;98563.22;4189492;28;20654;-88
2022/02/01 10:27:38;;;;;;;5.72;2.70;;;;;;;6.82;77.60;98561.69;4189753;28;20621;-87
2022/02/01 10:29:59;;;;;;;9.00;4.30;;;;;;;6.91;77.36;98551.72;4187075;28;20223;-87
2022/02/01 10:32:18;;;;;;;12.95;5.18;;;;;;;7.01;77.49;98558.16;4187716;28;20347;-87
2022/02/01 10:34:42;;;;;;;7.32;2.47;;;;;;;7.11;75.62;98562.84;4176354;28;20290;-87
2022/02/01 10:37:17;;;;;;;8.45;2.55;;;;;;;7.20;76.66;98564.16;4207034;28;20258;-87
2022/02/01 10:39:22;;;;;;;6.60;2.63;;;;;;;7.22;75.89;98573.56;4173547;28;20250;-87
2022/02/01 10:41:25;;;;;;;9.30;1.77;;;;;;;7.18;74.96;98568.59;4174893;28;20293;-87
2022/02/01 10:43:30;;;;;;;4.78;2.00;;;;;;;7.08;73.34;98573.38;4190024;28;20301;-88
2022/02/01 10:45:42;;;;;;;9.23;3.55;;;;;;;6.97;74.16;98566.16;4206916;28;20204;-87
2022/02/01 10:47:47;;;;;;;7.30;2.63;;;;;;;6.92;73.97;98578.50;4208140;28;20207;-88
2022/02/01 10:49:52;;;;;;;8.48;2.78;;;;;;;6.94;74.97;98561.13;4189931;28;20297;-88
2022/02/01 10:52:02;;;;;;;5.70;2.30;;;;;;;6.92;74.62;98563.78;4175299;28;20241;-93
2022/02/01 10:54:19;;;;;;;7.80;2.20;;;;;;;6.94;74.03;98559.34;4203708;28;20205;-87
2022/02/01 10:56:42;;;;;;;5.15;2.33;;;;;;;6.87;73.21;98544.16;4174631;28;20213;-88
2022/02/01 10:58:45;;;;;;;5.80;2.08;;;;;;;6.81;73.23;98536.66;4208372;28;20221;-88